sensor_id;sensor_type;location;lat;lon;timestamp;pressure;altitude;pressure_sealevel;temperature;humidity
30897;BME280;64229;52.246;21.054;2023-04-06T00:00:02;101158.84;;;2.96;50.30
30897;BME280;64229;52.246;21.054;2023-04-06T00:02:29;101145.44;;;2.90;50.34
30897;BME280;64229;52.246;21.054;2023-04-06T00:04:55;101155.84;;;2.99;50.72
30897;BME280;64229;52.246;21.054;2023-04-06T00:07:20;101158.63;;;2.90;50.34
30897;BME280;64229;52.246;21.054;2023-04-06T00:09:46;101154.78;;;2.93;50.82
30897;BME280;64229;52.246;21.054;2023-04-06T00:12:11;101153.56;;;2.96;50.47
30897;BME280;64229;52.246;21.054;2023-04-06T00:14:36;101153.34;;;2.90;50.64
30897;BME280;64229;52.246;21.054;2023-04-06T00:17:02;101146.25;;;2.91;50.72
30897;BME280;64229;52.246;21.054;2023-04-06T00:19:27;101153.75;;;2.87;50.94
30897;BME280;64229;52.246;21.054;2023-04-06T00:21:53;101152.56;;;2.97;50.48
30897;BME280;64229;52.246;21.054;2023-04-06T00:24:18;101145.09;;;3.00;50.52
30897;BME280;64229;52.246;21.054;2023-04-06T00:26:43;101145.66;;;2.96;50.24
30897;BME280;64229;52.246;21.054;2023-04-06T00:29:09;101144.00;;;2.88;50.85
30897;BME280;64229;52.246;21.054;2023-04-06T00:31:34;101139.56;;;2.88;51.26
30897;BME280;64229;52.246;21.054;2023-04-06T00:34:00;101139.81;;;3.00;50.57
30897;BME280;64229;52.246;21.054;2023-04-06T00:36:25;101131.66;;;2.95;50.64
30897;BME280;64229;52.246;21.054;2023-04-06T00:38:51;101131.03;;;2.93;50.78
30897;BME280;64229;52.246;21.054;2023-04-06T00:41:17;101121.09;;;2.88;50.97
30897;BME280;64229;52.246;21.054;2023-04-06T00:43:43;101120.50;;;2.93;50.44
30897;BME280;64229;52.246;21.054;2023-04-06T00:46:08;101123.34;;;2.92;50.54
30897;BME280;64229;52.246;21.054;2023-04-06T00:48:34;101135.91;;;2.89;50.94
30897;BME280;64229;52.246;21.054;2023-04-06T00:51:00;101126.94;;;2.84;50.88
30897;BME280;64229;52.246;21.054;2023-04-06T00:53:26;101121.84;;;2.82;51.26
30897;BME280;64229;52.246;21.054;2023-04-06T00:55:51;101122.09;;;2.87;50.94
30897;BME280;64229;52.246;21.054;2023-04-06T00:58:17;101124.75;;;2.87;50.81
30897;BME280;64229;52.246;21.054;2023-04-06T01:00:42;101123.91;;;2.87;51.44
30897;BME280;64229;52.246;21.054;2023-04-06T01:03:07;101123.09;;;2.86;51.00
30897;BME280;64229;52.246;21.054;2023-04-06T01:05:34;101117.25;;;2.91;50.53
30897;BME280;64229;52.246;21.054;2023-04-06T01:08:04;101121.47;;;2.85;51.13
30897;BME280;64229;52.246;21.054;2023-04-06T01:10:30;101096.50;;;2.81;50.54
30897;BME280;64229;52.246;21.054;2023-04-06T01:12:55;101110.91;;;2.85;50.81
30897;BME280;64229;52.246;21.054;2023-04-06T01:15:21;101116.19;;;2.85;50.94
30897;BME280;64229;52.246;21.054;2023-04-06T01:17:46;101111.84;;;2.71;51.06
30897;BME280;64229;52.246;21.054;2023-04-06T01:20:12;101108.34;;;2.64;51.86
30897;BME280;64229;52.246;21.054;2023-04-06T01:22:38;101110.84;;;2.72;52.06
30897;BME280;64229;52.246;21.054;2023-04-06T01:25:03;101105.63;;;2.85;50.83
30897;BME280;64229;52.246;21.054;2023-04-06T01:27:29;101103.66;;;2.87;50.63
30897;BME280;64229;52.246;21.054;2023-04-06T01:29:55;101109.69;;;2.81;51.64
30897;BME280;64229;52.246;21.054;2023-04-06T01:32:20;101103.19;;;2.84;51.21
30897;BME280;64229;52.246;21.054;2023-04-06T01:34:46;101099.75;;;2.83;50.92
30897;BME280;64229;52.246;21.054;2023-04-06T01:37:11;101094.91;;;2.87;50.97
30897;BME280;64229;52.246;21.054;2023-04-06T01:39:36;101094.47;;;2.83;51.13
30897;BME280;64229;52.246;21.054;2023-04-06T01:42:02;101089.59;;;2.80;50.69
30897;BME280;64229;52.246;21.054;2023-04-06T01:44:27;101095.53;;;2.89;50.59
30897;BME280;64229;52.246;21.054;2023-04-06T01:46:55;101089.66;;;2.94;50.36
30897;BME280;64229;52.246;21.054;2023-04-06T01:49:21;101092.59;;;2.71;51.66
30897;BME280;64229;52.246;21.054;2023-04-06T01:51:47;101079.47;;;2.77;50.79
30897;BME280;64229;52.246;21.054;2023-04-06T01:54:12;101093.88;;;2.81;50.73
30897;BME280;64229;52.246;21.054;2023-04-06T01:56:37;101087.16;;;2.79;51.06
30897;BME280;64229;52.246;21.054;2023-04-06T01:59:03;101089.06;;;2.64;51.82
30897;BME280;64229;52.246;21.054;2023-04-06T02:01:28;101050.47;;;2.49;51.84
30897;BME280;64229;52.246;21.054;2023-04-06T02:03:53;101073.94;;;2.72;51.95
30897;BME280;64229;52.246;21.054;2023-04-06T02:06:19;101081.22;;;2.70;51.81
30897;BME280;64229;52.246;21.054;2023-04-06T02:08:44;101075.81;;;2.85;51.35
30897;BME280;64229;52.246;21.054;2023-04-06T02:11:10;101083.47;;;2.73;51.88
30897;BME280;64229;52.246;21.054;2023-04-06T02:13:35;101073.94;;;2.72;52.45
30897;BME280;64229;52.246;21.054;2023-04-06T02:16:00;101064.19;;;2.66;52.42
30897;BME280;64229;52.246;21.054;2023-04-06T02:18:28;101065.59;;;2.69;52.78
30897;BME280;64229;52.246;21.054;2023-04-06T02:20:54;101060.91;;;2.64;52.67
30897;BME280;64229;52.246;21.054;2023-04-06T02:23:19;101063.13;;;2.60;52.97
30897;BME280;64229;52.246;21.054;2023-04-06T02:25:45;101060.25;;;2.55;53.26
30897;BME280;64229;52.246;21.054;2023-04-06T02:28:10;101068.06;;;2.42;53.82
30897;BME280;64229;52.246;21.054;2023-04-06T02:30:35;101060.16;;;2.42;53.74
30897;BME280;64229;52.246;21.054;2023-04-06T02:33:02;101064.66;;;2.48;53.80
30897;BME280;64229;52.246;21.054;2023-04-06T02:35:28;101061.56;;;2.73;52.74
30897;BME280;64229;52.246;21.054;2023-04-06T02:37:53;101056.53;;;2.78;52.51
30897;BME280;64229;52.246;21.054;2023-04-06T02:40:19;101056.50;;;2.71;53.02
30897;BME280;64229;52.246;21.054;2023-04-06T02:42:44;101054.91;;;2.77;52.78
30897;BME280;64229;52.246;21.054;2023-04-06T02:45:10;101057.50;;;2.70;52.91
30897;BME280;64229;52.246;21.054;2023-04-06T02:47:35;101030.94;;;2.37;54.03
30897;BME280;64229;52.246;21.054;2023-04-06T02:50:00;101049.28;;;2.52;53.47
30897;BME280;64229;52.246;21.054;2023-04-06T02:52:26;101043.72;;;2.40;54.51
30897;BME280;64229;52.246;21.054;2023-04-06T02:54:52;101056.75;;;2.48;54.21
30897;BME280;64229;52.246;21.054;2023-04-06T02:57:17;101050.47;;;2.49;54.54
30897;BME280;64229;52.246;21.054;2023-04-06T02:59:43;101056.50;;;2.43;54.67
30897;BME280;64229;52.246;21.054;2023-04-06T03:02:08;101054.47;;;2.39;55.22
30897;BME280;64229;52.246;21.054;2023-04-06T03:04:33;101054.19;;;2.27;55.66
30897;BME280;64229;52.246;21.054;2023-04-06T03:06:59;101058.31;;;2.36;55.56
30897;BME280;64229;52.246;21.054;2023-04-06T03:09:24;101056.22;;;2.31;55.97
30897;BME280;64229;52.246;21.054;2023-04-06T03:11:49;101042.97;;;2.18;55.98
30897;BME280;64229;52.246;21.054;2023-04-06T03:14:15;101052.47;;;2.13;57.04
30897;BME280;64229;52.246;21.054;2023-04-06T03:16:42;101049.69;;;1.99;57.25
30897;BME280;64229;52.246;21.054;2023-04-06T03:19:07;101055.84;;;2.07;57.31
30897;BME280;64229;52.246;21.054;2023-04-06T03:21:33;101063.63;;;2.15;57.35
30897;BME280;64229;52.246;21.054;2023-04-06T03:23:58;101062.53;;;2.09;57.36
30897;BME280;64229;52.246;21.054;2023-04-06T03:26:23;101053.28;;;2.13;57.37
30897;BME280;64229;52.246;21.054;2023-04-06T03:28:49;101065.63;;;2.13;57.41
30897;BME280;64229;52.246;21.054;2023-04-06T03:31:14;101063.75;;;2.07;57.74
30897;BME280;64229;52.246;21.054;2023-04-06T03:33:40;101058.66;;;2.05;58.02
30897;BME280;64229;52.246;21.054;2023-04-06T03:36:05;101068.41;;;2.11;57.78
30897;BME280;64229;52.246;21.054;2023-04-06T03:38:32;101055.97;;;1.98;58.48
30897;BME280;64229;52.246;21.054;2023-04-06T03:40:57;101062.34;;;1.89;58.77
30897;BME280;64229;52.246;21.054;2023-04-06T03:43:22;101060.19;;;1.93;58.78
30897;BME280;64229;52.246;21.054;2023-04-06T03:45:48;101064.69;;;1.99;58.89
30897;BME280;64229;52.246;21.054;2023-04-06T03:48:13;101057.88;;;1.83;59.21
30897;BME280;64229;52.246;21.054;2023-04-06T03:50:38;101057.66;;;1.85;59.37
30897;BME280;64229;52.246;21.054;2023-04-06T03:53:04;101062.56;;;1.88;59.15
30897;BME280;64229;52.246;21.054;2023-04-06T03:55:29;101034.03;;;1.70;59.39
30897;BME280;64229;52.246;21.054;2023-04-06T03:57:55;101059.69;;;1.83;59.69
30897;BME280;64229;52.246;21.054;2023-04-06T04:00:20;101067.69;;;1.96;59.19
30897;BME280;64229;52.246;21.054;2023-04-06T04:02:46;101068.75;;;2.01;58.62
30897;BME280;64229;52.246;21.054;2023-04-06T04:05:11;101054.28;;;1.91;58.90
30897;BME280;64229;52.246;21.054;2023-04-06T04:07:37;101062.00;;;1.92;59.32
30897;BME280;64229;52.246;21.054;2023-04-06T04:10:03;101059.09;;;1.87;59.61
30897;BME280;64229;52.246;21.054;2023-04-06T04:12:28;101065.25;;;1.94;59.07
30897;BME280;64229;52.246;21.054;2023-04-06T04:14:53;101056.34;;;1.95;59.22
30897;BME280;64229;52.246;21.054;2023-04-06T04:17:19;101054.59;;;2.02;58.71
30897;BME280;64229;52.246;21.054;2023-04-06T04:19:44;101057.34;;;1.94;59.23
30897;BME280;64229;52.246;21.054;2023-04-06T04:22:10;101060.34;;;1.91;59.40
30897;BME280;64229;52.246;21.054;2023-04-06T04:24:35;101052.44;;;1.91;59.55
30897;BME280;64229;52.246;21.054;2023-04-06T04:27:00;101054.63;;;1.81;59.75
30897;BME280;64229;52.246;21.054;2023-04-06T04:29:26;101051.41;;;1.86;60.16
30897;BME280;64229;52.246;21.054;2023-04-06T04:31:51;101045.94;;;1.87;60.09
30897;BME280;64229;52.246;21.054;2023-04-06T04:34:18;101048.19;;;1.90;60.38
30897;BME280;64229;52.246;21.054;2023-04-06T04:36:45;101051.41;;;1.86;60.50
30897;BME280;64229;52.246;21.054;2023-04-06T04:39:11;101056.97;;;1.97;60.01
30897;BME280;64229;52.246;21.054;2023-04-06T04:41:36;101044.91;;;2.10;59.82
30897;BME280;64229;52.246;21.054;2023-04-06T04:44:01;101045.75;;;1.89;60.29
30897;BME280;64229;52.246;21.054;2023-04-06T04:46:27;101040.25;;;1.84;60.76
30897;BME280;64229;52.246;21.054;2023-04-06T04:48:52;101021.00;;;1.83;60.73
30897;BME280;64229;52.246;21.054;2023-04-06T04:51:18;101034.91;;;1.98;60.21
30897;BME280;64229;52.246;21.054;2023-04-06T04:53:45;101031.88;;;2.01;60.19
30897;BME280;64229;52.246;21.054;2023-04-06T04:56:10;101027.88;;;2.06;60.17
30897;BME280;64229;52.246;21.054;2023-04-06T04:58:35;101026.00;;;1.99;60.49
30897;BME280;64229;52.246;21.054;2023-04-06T05:01:01;101021.69;;;1.92;60.82
30897;BME280;64229;52.246;21.054;2023-04-06T05:03:26;101025.00;;;1.79;61.89
30897;BME280;64229;52.246;21.054;2023-04-06T05:05:52;101024.81;;;1.81;62.01
30897;BME280;64229;52.246;21.054;2023-04-06T05:08:18;101039.41;;;2.05;60.94
30897;BME280;64229;52.246;21.054;2023-04-06T05:10:43;101037.81;;;2.10;60.90
30897;BME280;64229;52.246;21.054;2023-04-06T05:13:13;101033.66;;;2.22;60.26
30897;BME280;64229;52.246;21.054;2023-04-06T05:15:38;101038.44;;;2.12;60.31
30897;BME280;64229;52.246;21.054;2023-04-06T05:18:05;101036.97;;;2.03;60.95
30897;BME280;64229;52.246;21.054;2023-04-06T05:20:31;101036.06;;;2.17;61.00
30897;BME280;64229;52.246;21.054;2023-04-06T05:22:56;101039.19;;;2.27;59.95
30897;BME280;64229;52.246;21.054;2023-04-06T05:25:22;101034.66;;;2.21;59.80
30897;BME280;64229;52.246;21.054;2023-04-06T05:27:47;101036.66;;;2.13;60.89
30897;BME280;64229;52.246;21.054;2023-04-06T05:30:13;101034.63;;;2.15;61.06
30897;BME280;64229;52.246;21.054;2023-04-06T05:32:38;101038.41;;;2.33;59.69
30897;BME280;64229;52.246;21.054;2023-04-06T05:35:04;101031.84;;;2.51;59.48
30897;BME280;64229;52.246;21.054;2023-04-06T05:37:29;101033.38;;;2.39;60.08
30897;BME280;64229;52.246;21.054;2023-04-06T05:39:55;101031.16;;;2.42;60.23
30897;BME280;64229;52.246;21.054;2023-04-06T05:42:21;101029.59;;;2.48;60.06
30897;BME280;64229;52.246;21.054;2023-04-06T05:44:47;101022.63;;;2.68;59.40
30897;BME280;64229;52.246;21.054;2023-04-06T05:47:12;101029.16;;;2.79;59.14
30897;BME280;64229;52.246;21.054;2023-04-06T05:49:37;101027.81;;;2.96;57.89
30897;BME280;64229;52.246;21.054;2023-04-06T05:52:03;101020.16;;;3.08;57.50
30897;BME280;64229;52.246;21.054;2023-04-06T05:54:29;101022.97;;;3.00;57.83
30897;BME280;64229;52.246;21.054;2023-04-06T05:56:54;101028.81;;;2.95;58.42
30897;BME280;64229;52.246;21.054;2023-04-06T05:59:20;101013.88;;;3.09;57.64
30897;BME280;64229;52.246;21.054;2023-04-06T06:01:45;101012.22;;;3.08;57.69
30897;BME280;64229;52.246;21.054;2023-04-06T06:04:11;101006.13;;;3.01;57.47
30897;BME280;64229;52.246;21.054;2023-04-06T06:06:36;101008.84;;;3.21;56.47
30897;BME280;64229;52.246;21.054;2023-04-06T06:09:02;101011.91;;;3.37;55.69
30897;BME280;64229;52.246;21.054;2023-04-06T06:11:28;101010.28;;;3.30;56.08
30897;BME280;64229;52.246;21.054;2023-04-06T06:13:54;101016.22;;;3.45;55.32
30897;BME280;64229;52.246;21.054;2023-04-06T06:16:20;101013.81;;;3.63;53.59
30897;BME280;64229;52.246;21.054;2023-04-06T06:18:45;101017.47;;;3.62;53.66
30897;BME280;64229;52.246;21.054;2023-04-06T06:21:11;101004.25;;;3.62;54.18
30897;BME280;64229;52.246;21.054;2023-04-06T06:23:37;101018.28;;;3.76;53.09
30897;BME280;64229;52.246;21.054;2023-04-06T06:26:03;101017.88;;;3.79;52.61
30897;BME280;64229;52.246;21.054;2023-04-06T06:28:29;101018.50;;;3.74;52.51
30897;BME280;64229;52.246;21.054;2023-04-06T06:30:55;100975.81;;;3.58;52.45
30897;BME280;64229;52.246;21.054;2023-04-06T06:33:20;101015.44;;;3.84;52.22
30897;BME280;64229;52.246;21.054;2023-04-06T06:35:45;101004.09;;;3.84;52.15
30897;BME280;64229;52.246;21.054;2023-04-06T06:38:11;100999.81;;;3.89;52.96
30897;BME280;64229;52.246;21.054;2023-04-06T06:40:36;101003.66;;;3.87;52.78
30897;BME280;64229;52.246;21.054;2023-04-06T06:43:02;101008.56;;;3.83;52.54
30897;BME280;64229;52.246;21.054;2023-04-06T06:45:27;101000.94;;;3.27;54.14
30897;BME280;64229;52.246;21.054;2023-04-06T06:47:54;101003.19;;;3.37;55.00
30897;BME280;64229;52.246;21.054;2023-04-06T06:50:19;100987.56;;;3.48;54.55
30897;BME280;64229;52.246;21.054;2023-04-06T06:52:45;101002.03;;;3.66;54.65
30897;BME280;64229;52.246;21.054;2023-04-06T06:55:10;100994.31;;;3.64;54.05
30897;BME280;64229;52.246;21.054;2023-04-06T06:57:36;100989.41;;;3.48;54.60
30897;BME280;64229;52.246;21.054;2023-04-06T07:00:02;100985.97;;;3.47;54.67
30897;BME280;64229;52.246;21.054;2023-04-06T07:02:28;101001.44;;;3.77;54.40
30897;BME280;64229;52.246;21.054;2023-04-06T07:04:53;100994.72;;;3.74;53.94
30897;BME280;64229;52.246;21.054;2023-04-06T07:07:19;100999.22;;;3.94;54.21
30897;BME280;64229;52.246;21.054;2023-04-06T07:09:45;101001.81;;;4.14;53.40
30897;BME280;64229;52.246;21.054;2023-04-06T07:12:10;100998.56;;;4.18;53.27
30897;BME280;64229;52.246;21.054;2023-04-06T07:14:35;100994.69;;;4.27;52.42
30897;BME280;64229;52.246;21.054;2023-04-06T07:17:01;100979.09;;;4.06;52.60
30897;BME280;64229;52.246;21.054;2023-04-06T07:19:27;100991.47;;;4.05;53.20
30897;BME280;64229;52.246;21.054;2023-04-06T07:21:52;100982.16;;;3.83;54.14
30897;BME280;64229;52.246;21.054;2023-04-06T07:24:18;100993.50;;;4.03;53.73
30897;BME280;64229;52.246;21.054;2023-04-06T07:26:43;100998.56;;;4.12;54.16
30897;BME280;64229;52.246;21.054;2023-04-06T07:29:08;100984.34;;;4.19;53.62
30897;BME280;64229;52.246;21.054;2023-04-06T07:31:34;100981.50;;;4.21;53.90
30897;BME280;64229;52.246;21.054;2023-04-06T07:34:00;100989.81;;;4.24;53.36
30897;BME280;64229;52.246;21.054;2023-04-06T07:36:26;100994.69;;;4.21;53.43
30897;BME280;64229;52.246;21.054;2023-04-06T07:38:51;100994.69;;;4.14;54.12
30897;BME280;64229;52.246;21.054;2023-04-06T07:41:16;100984.56;;;3.98;54.85
30897;BME280;64229;52.246;21.054;2023-04-06T07:43:42;100985.78;;;4.02;55.00
30897;BME280;64229;52.246;21.054;2023-04-06T07:46:07;100994.13;;;4.05;54.79
30897;BME280;64229;52.246;21.054;2023-04-06T07:48:33;100983.94;;;4.09;54.82
30897;BME280;64229;52.246;21.054;2023-04-06T07:51:02;100989.03;;;3.91;55.68
30897;BME280;64229;52.246;21.054;2023-04-06T07:53:27;100985.56;;;3.90;56.14
30897;BME280;64229;52.246;21.054;2023-04-06T07:55:53;100980.31;;;3.97;55.79
30897;BME280;64229;52.246;21.054;2023-04-06T07:58:18;100980.28;;;3.90;55.71
30897;BME280;64229;52.246;21.054;2023-04-06T08:00:44;100977.69;;;3.84;55.94
30897;BME280;64229;52.246;21.054;2023-04-06T08:03:09;100982.09;;;4.03;56.04
30897;BME280;64229;52.246;21.054;2023-04-06T08:05:35;100979.88;;;4.00;55.89
30897;BME280;64229;52.246;21.054;2023-04-06T08:08:00;100972.16;;;3.98;57.57
30897;BME280;64229;52.246;21.054;2023-04-06T08:10:25;100974.81;;;3.85;58.31
30897;BME280;64229;52.246;21.054;2023-04-06T08:12:52;100976.44;;;3.93;58.46
30897;BME280;64229;52.246;21.054;2023-04-06T08:15:17;100972.34;;;4.03;58.79
30897;BME280;64229;52.246;21.054;2023-04-06T08:17:43;100973.16;;;4.24;58.90
30897;BME280;64229;52.246;21.054;2023-04-06T08:20:09;100976.97;;;4.41;58.81
30897;BME280;64229;52.246;21.054;2023-04-06T08:22:34;100972.88;;;4.52;58.26
30897;BME280;64229;52.246;21.054;2023-04-06T08:25:00;100982.81;;;4.63;57.11
30897;BME280;64229;52.246;21.054;2023-04-06T08:27:25;100972.50;;;4.42;58.01
30897;BME280;64229;52.246;21.054;2023-04-06T08:29:51;100975.19;;;4.28;58.71
30897;BME280;64229;52.246;21.054;2023-04-06T08:32:16;100967.22;;;4.48;58.83
30897;BME280;64229;52.246;21.054;2023-04-06T08:34:42;100964.75;;;4.53;58.33
30897;BME280;64229;52.246;21.054;2023-04-06T08:37:07;100968.41;;;4.52;58.15
30897;BME280;64229;52.246;21.054;2023-04-06T08:39:33;100966.19;;;4.43;58.09
30897;BME280;64229;52.246;21.054;2023-04-06T08:41:59;100964.97;;;4.45;58.75
30897;BME280;64229;52.246;21.054;2023-04-06T08:44:28;100960.56;;;4.26;59.22
30897;BME280;64229;52.246;21.054;2023-04-06T08:46:54;100969.09;;;4.21;60.12
30897;BME280;64229;52.246;21.054;2023-04-06T08:49:20;100965.84;;;4.13;59.79
30897;BME280;64229;52.246;21.054;2023-04-06T08:51:47;100966.25;;;4.16;60.58
30897;BME280;64229;52.246;21.054;2023-04-06T08:54:12;100960.56;;;4.19;60.60
30897;BME280;64229;52.246;21.054;2023-04-06T08:56:39;100957.66;;;4.41;59.69
30897;BME280;64229;52.246;21.054;2023-04-06T08:59:05;100927.66;;;4.15;60.33
30897;BME280;64229;52.246;21.054;2023-04-06T09:01:33;100952.22;;;4.29;61.21
30897;BME280;64229;52.246;21.054;2023-04-06T09:04:03;100954.25;;;4.20;61.95
30897;BME280;64229;52.246;21.054;2023-04-06T09:06:34;100954.69;;;4.04;63.03
30897;BME280;64229;52.246;21.054;2023-04-06T09:08:59;100947.56;;;4.11;63.78
30897;BME280;64229;52.246;21.054;2023-04-06T09:11:24;100938.41;;;4.14;64.07
30897;BME280;64229;52.246;21.054;2023-04-06T09:13:56;100938.78;;;4.30;64.33
30897;BME280;64229;52.246;21.054;2023-04-06T09:16:22;100940.41;;;4.38;63.87
30897;BME280;64229;52.246;21.054;2023-04-06T09:18:49;100926.59;;;4.36;64.54
30897;BME280;64229;52.246;21.054;2023-04-06T09:21:17;100915.44;;;4.27;64.60
30897;BME280;64229;52.246;21.054;2023-04-06T09:23:43;100922.75;;;4.25;65.28
30897;BME280;64229;52.246;21.054;2023-04-06T09:26:14;100911.34;;;4.25;63.97
30897;BME280;64229;52.246;21.054;2023-04-06T09:28:47;100915.66;;;4.19;63.54
30897;BME280;64229;52.246;21.054;2023-04-06T09:31:15;100905.13;;;3.93;63.86
30897;BME280;64229;52.246;21.054;2023-04-06T09:33:42;100915.50;;;3.81;65.17
30897;BME280;64229;52.246;21.054;2023-04-06T09:36:08;100922.22;;;3.64;66.27
30897;BME280;64229;52.246;21.054;2023-04-06T09:38:50;100919.59;;;3.64;67.13
30897;BME280;64229;52.246;21.054;2023-04-06T09:41:30;100921.81;;;3.67;68.54
30897;BME280;64229;52.246;21.054;2023-04-06T09:44:21;100904.94;;;3.48;69.64
30897;BME280;64229;52.246;21.054;2023-04-06T09:46:49;100912.06;;;3.67;70.16
30897;BME280;64229;52.246;21.054;2023-04-06T09:49:14;100902.72;;;3.78;71.89
30897;BME280;64229;52.246;21.054;2023-04-06T09:51:49;100901.91;;;3.77;71.18
30897;BME280;64229;52.246;21.054;2023-04-06T09:54:21;100896.41;;;3.79;70.66
30897;BME280;64229;52.246;21.054;2023-04-06T09:59:18;100895.59;;;3.78;70.10
30897;BME280;64229;52.246;21.054;2023-04-06T10:01:46;100899.47;;;3.56;71.23
30897;BME280;64229;52.246;21.054;2023-04-06T10:06:39;100878.38;;;3.30;73.02
30897;BME280;64229;52.246;21.054;2023-04-06T10:09:06;100885.47;;;3.49;72.33
30897;BME280;64229;52.246;21.054;2023-04-06T10:11:33;100871.88;;;3.52;72.34
30897;BME280;64229;52.246;21.054;2023-04-06T10:14:00;100873.09;;;3.63;71.65
30897;BME280;64229;52.246;21.054;2023-04-06T10:16:25;100869.84;;;3.54;72.51
30897;BME280;64229;52.246;21.054;2023-04-06T10:18:57;100877.34;;;3.64;71.74
30897;BME280;64229;52.246;21.054;2023-04-06T10:21:26;100870.84;;;3.73;72.57
30897;BME280;64229;52.246;21.054;2023-04-06T10:23:57;100875.88;;;3.81;72.46
30897;BME280;64229;52.246;21.054;2023-04-06T10:26:23;100879.56;;;3.87;73.49
30897;BME280;64229;52.246;21.054;2023-04-06T10:28:50;100879.75;;;3.78;73.87
30897;BME280;64229;52.246;21.054;2023-04-06T10:31:24;100832.28;;;3.45;73.14
30897;BME280;64229;52.246;21.054;2023-04-06T10:33:57;100871.47;;;3.48;73.52
30897;BME280;64229;52.246;21.054;2023-04-06T10:36:25;100882.84;;;3.42;74.27
30897;BME280;64229;52.246;21.054;2023-04-06T10:38:57;100874.31;;;3.21;75.48
30897;BME280;64229;52.246;21.054;2023-04-06T10:41:23;100869.00;;;3.07;75.87
30897;BME280;64229;52.246;21.054;2023-04-06T10:43:57;100868.81;;;3.02;77.45
30897;BME280;64229;52.246;21.054;2023-04-06T10:46:27;100855.81;;;3.01;77.74
30897;BME280;64229;52.246;21.054;2023-04-06T10:48:52;100858.28;;;3.09;76.71
30897;BME280;64229;52.246;21.054;2023-04-06T10:51:18;100848.13;;;3.12;77.30
30897;BME280;64229;52.246;21.054;2023-04-06T10:53:46;100840.19;;;3.06;78.30
30897;BME280;64229;52.246;21.054;2023-04-06T10:56:15;100817.69;;;3.16;78.33
30897;BME280;64229;52.246;21.054;2023-04-06T10:58:48;100850.97;;;3.31;77.62
30897;BME280;64229;52.246;21.054;2023-04-06T11:01:16;100845.28;;;3.40;77.12
30897;BME280;64229;52.246;21.054;2023-04-06T11:03:43;100841.25;;;3.31;75.93
30897;BME280;64229;52.246;21.054;2023-04-06T11:06:09;100819.72;;;3.21;76.09
30897;BME280;64229;52.246;21.054;2023-04-06T11:08:34;100854.03;;;3.21;76.65
30897;BME280;64229;52.246;21.054;2023-04-06T11:13:42;100839.00;;;3.15;78.06
30897;BME280;64229;52.246;21.054;2023-04-06T11:18:54;100833.09;;;3.13;78.13
30897;BME280;64229;52.246;21.054;2023-04-06T11:21:36;100836.75;;;3.18;77.92
30897;BME280;64229;52.246;21.054;2023-04-06T11:24:10;100832.09;;;3.27;78.22
30897;BME280;64229;52.246;21.054;2023-04-06T11:29:29;100820.09;;;3.38;78.31
30897;BME280;64229;52.246;21.054;2023-04-06T11:34:29;100818.47;;;3.57;77.09
30897;BME280;64229;52.246;21.054;2023-04-06T11:36:56;100787.25;;;3.34;77.32
30897;BME280;64229;52.246;21.054;2023-04-06T11:39:23;100812.78;;;3.60;77.68
30897;BME280;64229;52.246;21.054;2023-04-06T11:41:50;100815.81;;;3.57;77.38
30897;BME280;64229;52.246;21.054;2023-04-06T11:44:26;100812.00;;;3.53;77.28
30897;BME280;64229;52.246;21.054;2023-04-06T11:46:53;100816.47;;;3.52;77.73
30897;BME280;64229;52.246;21.054;2023-04-06T11:49:18;100805.69;;;3.47;78.23
30897;BME280;64229;52.246;21.054;2023-04-06T11:51:45;100804.63;;;3.68;77.79
30897;BME280;64229;52.246;21.054;2023-04-06T11:54:11;100797.31;;;3.70;76.04
30897;BME280;64229;52.246;21.054;2023-04-06T11:56:36;100786.53;;;3.78;75.37
30897;BME280;64229;52.246;21.054;2023-04-06T11:59:02;100790.59;;;3.81;75.56
30897;BME280;64229;52.246;21.054;2023-04-06T12:01:28;100783.25;;;3.83;75.23
30897;BME280;64229;52.246;21.054;2023-04-06T12:03:54;100765.47;;;3.65;74.73
30897;BME280;64229;52.246;21.054;2023-04-06T12:06:19;100774.00;;;3.60;74.78
30897;BME280;64229;52.246;21.054;2023-04-06T12:08:45;100751.84;;;3.61;75.32
30897;BME280;64229;52.246;21.054;2023-04-06T12:11:11;100775.59;;;3.74;75.03
30897;BME280;64229;52.246;21.054;2023-04-06T12:13:37;100765.44;;;3.71;75.32
30897;BME280;64229;52.246;21.054;2023-04-06T12:16:02;100764.44;;;3.66;75.24
30897;BME280;64229;52.246;21.054;2023-04-06T12:18:27;100761.78;;;3.72;74.61
30897;BME280;64229;52.246;21.054;2023-04-06T12:20:53;100759.75;;;3.74;74.66
30897;BME280;64229;52.246;21.054;2023-04-06T12:23:19;100750.97;;;3.87;74.73
30897;BME280;64229;52.246;21.054;2023-04-06T12:25:45;100765.63;;;3.83;74.20
30897;BME280;64229;52.246;21.054;2023-04-06T12:28:11;100755.88;;;3.84;74.45
30897;BME280;64229;52.246;21.054;2023-04-06T12:30:36;100717.97;;;3.58;74.43
30897;BME280;64229;52.246;21.054;2023-04-06T12:33:02;100759.47;;;3.89;74.83
30897;BME280;64229;52.246;21.054;2023-04-06T12:35:27;100775.91;;;3.98;74.40
30897;BME280;64229;52.246;21.054;2023-04-06T12:37:53;100757.63;;;3.96;74.57
30897;BME280;64229;52.246;21.054;2023-04-06T12:40:18;100755.81;;;3.90;74.65
30897;BME280;64229;52.246;21.054;2023-04-06T12:42:44;100763.53;;;3.92;74.97
30897;BME280;64229;52.246;21.054;2023-04-06T12:45:11;100751.13;;;3.92;74.48
30897;BME280;64229;52.246;21.054;2023-04-06T12:47:37;100744.28;;;3.85;74.48
30897;BME280;64229;52.246;21.054;2023-04-06T12:50:04;100744.50;;;3.76;75.22
30897;BME280;64229;52.246;21.054;2023-04-06T12:52:30;100757.31;;;3.73;74.97
30897;BME280;64229;52.246;21.054;2023-04-06T12:54:57;100749.19;;;3.68;75.51
30897;BME280;64229;52.246;21.054;2023-04-06T12:57:24;100748.16;;;3.75;75.97
30897;BME280;64229;52.246;21.054;2023-04-06T12:59:50;100732.75;;;3.72;76.10